createdAt,value
2023-07-11T00:01:34.548Z,95913.22
2023-07-11T00:04:02.379Z,95909.13
2023-07-11T00:06:30.283Z,95913.69
2023-07-11T00:08:57.933Z,95908.69
2023-07-11T00:11:26.053Z,95916.66
2023-07-11T00:13:55.097Z,95907.22
2023-07-11T00:16:24.412Z,95911.19
2023-07-11T00:18:52.145Z,95908.50
2023-07-11T00:21:19.915Z,95910.38
2023-07-11T00:23:47.651Z,95910.13
2023-07-11T00:26:15.369Z,95909.81
2023-07-11T00:28:43.072Z,95912.25
2023-07-11T00:31:11.033Z,95909.00
2023-07-11T00:33:40.173Z,95909.44
2023-07-11T00:36:08.673Z,95907.72
2023-07-11T00:38:36.568Z,95915.41
2023-07-11T00:41:05.115Z,95906.47
2023-07-11T00:43:32.828Z,95911.03
2023-07-11T00:46:05.825Z,95906.00
2023-07-11T00:48:37.090Z,95910.28
2023-07-11T00:51:08.049Z,95906.72
2023-07-11T00:53:36.664Z,95896.84
2023-07-11T00:56:07.470Z,95901.63
2023-07-11T00:58:39.549Z,95898.81
2023-07-11T01:01:07.661Z,95910.69
2023-07-11T01:03:35.857Z,95893.63
2023-07-11T01:06:03.667Z,95894.81
2023-07-11T01:08:32.804Z,95894.22
2023-07-11T01:11:00.745Z,95892.91
2023-07-11T01:13:28.656Z,95886.53
2023-07-11T01:15:56.400Z,95886.69
2023-07-11T01:18:24.332Z,95880.66
2023-07-11T01:20:52.013Z,95888.09
2023-07-11T01:23:21.720Z,95872.28
2023-07-11T01:25:49.707Z,95879.72
2023-07-11T01:28:19.000Z,95870.19
2023-07-11T01:30:46.676Z,95870.28
2023-07-11T01:33:14.555Z,95862.28
2023-07-11T01:35:43.813Z,95873.53
2023-07-11T01:38:11.661Z,95870.88
2023-07-11T01:40:40.707Z,95878.41
2023-07-11T01:43:09.603Z,95875.06
2023-07-11T01:45:37.413Z,95872.56
2023-07-11T01:48:05.356Z,95874.72
2023-07-11T01:50:33.058Z,95867.28
2023-07-11T01:53:00.719Z,95871.38
2023-07-11T01:55:28.547Z,95876.16
2023-07-11T01:57:57.548Z,95859.16
2023-07-11T02:00:25.447Z,95861.59
2023-07-11T02:02:53.516Z,95856.69
2023-07-11T02:05:22.879Z,95853.78
2023-07-11T02:07:51.558Z,95856.69
2023-07-11T02:10:19.438Z,95852.88
2023-07-11T02:12:47.109Z,95856.72
2023-07-11T02:15:16.534Z,95856.16
2023-07-11T02:17:45.679Z,95844.25
2023-07-11T02:20:13.787Z,95844.34
2023-07-11T02:22:42.246Z,95840.28
2023-07-11T02:25:10.628Z,95838.44
2023-07-11T02:27:38.410Z,95827.50
2023-07-11T02:30:07.311Z,95834.47
2023-07-11T02:32:36.338Z,95827.50
2023-07-11T02:35:04.312Z,95824.25
2023-07-11T02:37:31.953Z,95823.09
2023-07-11T02:39:59.611Z,95822.97
2023-07-11T02:42:27.275Z,95823.75
2023-07-11T02:44:54.952Z,95830.25
2023-07-11T02:47:22.629Z,95825.44
2023-07-11T02:49:51.634Z,95827.84
2023-07-11T02:52:19.404Z,95826.56
2023-07-11T02:54:47.074Z,95829.63
2023-07-11T02:57:14.861Z,95826.50
2023-07-11T02:59:42.685Z,95817.31
2023-07-11T03:02:10.340Z,95814.94
2023-07-11T03:04:38.030Z,95812.88
2023-07-11T03:07:07.850Z,95809.75
2023-07-11T03:09:36.020Z,95809.63
2023-07-11T03:12:04.000Z,95796.41
2023-07-11T03:14:31.719Z,95795.88
2023-07-11T03:16:59.530Z,95797.56
2023-07-11T03:19:27.309Z,95786.53
2023-07-11T03:21:55.086Z,95793.63
2023-07-11T03:24:24.134Z,95784.91
2023-07-11T03:26:51.895Z,95782.00
2023-07-11T03:29:19.522Z,95786.09
2023-07-11T03:31:47.387Z,95787.25
2023-07-11T03:34:15.068Z,95791.44
2023-07-11T03:36:43.735Z,95783.34
2023-07-11T03:39:11.391Z,95787.19
2023-07-11T03:41:40.531Z,95782.47
2023-07-11T03:44:08.209Z,95790.72
2023-07-11T03:46:35.852Z,95780.81
2023-07-11T03:49:04.003Z,95786.25
2023-07-11T03:51:31.846Z,95781.03
2023-07-11T03:53:59.763Z,95788.28
2023-07-11T03:56:28.432Z,95789.94
2023-07-11T03:58:57.810Z,95777.47
2023-07-11T04:01:25.780Z,95782.38
2023-07-11T04:03:54.083Z,95777.88
2023-07-11T04:06:21.731Z,95792.25
2023-07-11T04:08:49.832Z,95778.72
2023-07-11T04:11:17.509Z,95776.94
2023-07-11T04:13:45.277Z,95780.84
2023-07-11T04:16:14.466Z,95780.09
2023-07-11T04:18:42.456Z,95784.84
2023-07-11T04:21:10.148Z,95781.44
2023-07-11T04:23:37.813Z,95780.63
2023-07-11T04:26:05.792Z,95779.53
2023-07-11T04:28:33.606Z,95769.72
2023-07-11T04:31:01.365Z,95770.28
2023-07-11T04:33:30.527Z,95775.75
2023-07-11T04:36:09.278Z,95763.91
2023-07-11T04:38:37.357Z,95770.47
2023-07-11T04:41:05.915Z,95760.03
2023-07-11T04:43:34.886Z,95763.53
2023-07-11T04:46:03.470Z,95770.19
2023-07-11T04:48:32.852Z,95774.88
2023-07-11T04:51:04.075Z,95765.59
2023-07-11T04:53:33.448Z,95769.66
2023-07-11T04:56:02.825Z,95772.41
2023-07-11T04:58:31.302Z,95779.03
2023-07-11T05:01:01.512Z,95773.31
2023-07-11T05:03:29.554Z,95772.00
2023-07-11T05:05:59.521Z,95776.28
2023-07-11T05:08:27.579Z,95767.56
2023-07-11T05:11:02.646Z,95773.09
2023-07-11T05:13:31.020Z,95773.78
2023-07-11T05:16:02.325Z,95769.25
2023-07-11T05:18:30.487Z,95768.50
2023-07-11T05:21:00.630Z,95771.34
2023-07-11T05:23:29.766Z,95769.75
2023-07-11T05:25:58.048Z,95769.41
2023-07-11T05:28:27.107Z,95759.81
2023-07-11T05:30:55.375Z,95765.72
2023-07-11T05:33:23.305Z,95762.72
2023-07-11T05:36:00.679Z,95771.16
2023-07-11T05:38:29.676Z,95764.31
2023-07-11T05:40:58.479Z,95769.41
2023-07-11T05:43:26.172Z,95765.25
2023-07-11T05:45:53.917Z,95764.56
2023-07-11T05:48:21.672Z,95761.72
2023-07-11T05:50:59.141Z,95762.47
2023-07-11T05:53:28.977Z,95758.94
2023-07-11T05:55:59.432Z,95761.91
2023-07-11T05:58:27.974Z,95767.19
2023-07-11T06:00:56.234Z,95755.56
2023-07-11T06:03:25.823Z,95760.03
2023-07-11T06:05:54.326Z,95758.81
2023-07-11T06:08:22.433Z,95756.22
2023-07-11T06:10:50.104Z,95754.44
2023-07-11T06:13:19.164Z,95746.69
2023-07-11T06:15:46.836Z,95750.78
2023-07-11T06:18:14.644Z,95748.41
2023-07-11T06:20:42.321Z,95742.50
2023-07-11T06:23:09.949Z,95748.47
2023-07-11T06:25:37.586Z,95744.16
2023-07-11T06:28:05.824Z,95745.81
2023-07-11T06:30:34.946Z,95735.03
2023-07-11T06:33:02.656Z,95736.38
2023-07-11T06:35:30.449Z,95740.94
2023-07-11T06:37:58.843Z,95736.59
2023-07-11T06:40:26.709Z,95737.09
2023-07-11T06:42:54.406Z,95746.22
2023-07-11T06:45:22.254Z,95739.13
2023-07-11T06:47:51.377Z,95743.91
2023-07-11T06:50:19.881Z,95742.22
2023-07-11T06:52:48.018Z,95735.13
2023-07-11T06:55:15.960Z,95737.47
2023-07-11T06:57:43.613Z,95734.69
2023-07-11T07:00:13.456Z,95740.75
2023-07-11T07:02:41.412Z,95737.34
2023-07-11T07:05:11.211Z,95741.63
2023-07-11T07:07:38.868Z,95736.41
2023-07-11T07:10:07.919Z,95736.03
2023-07-11T07:12:35.593Z,95733.16
2023-07-11T07:15:03.536Z,95730.78
2023-07-11T07:17:31.208Z,95731.38
2023-07-11T07:19:58.969Z,95733.09
2023-07-11T07:22:28.077Z,95727.19
2023-07-11T07:24:55.851Z,95726.75
2023-07-11T07:27:28.536Z,95728.75
2023-07-11T07:29:57.006Z,95713.28
2023-07-11T07:32:24.703Z,95721.19
2023-07-11T07:34:52.592Z,95719.66
2023-07-11T07:37:20.219Z,95714.88
2023-07-11T07:39:49.310Z,95712.50
2023-07-11T07:42:17.424Z,95720.16
2023-07-11T07:44:45.168Z,95711.50
2023-07-11T07:47:12.817Z,95708.13
2023-07-11T07:49:53.873Z,95721.97
2023-07-11T07:52:22.584Z,95717.72
2023-07-11T07:54:51.717Z,95706.22
2023-07-11T07:57:19.542Z,95709.44
2023-07-11T07:59:47.207Z,95697.88
2023-07-11T08:02:14.854Z,95701.66
2023-07-11T08:04:42.581Z,95701.50
2023-07-11T08:07:10.302Z,95700.06
2023-07-11T08:09:37.930Z,95693.38
2023-07-11T08:12:11.678Z,95697.31
2023-07-11T08:14:40.320Z,95694.00
2023-07-11T08:17:09.148Z,95696.13
2023-07-11T08:19:36.923Z,95694.47
2023-07-11T08:22:05.219Z,95691.97
2023-07-11T08:24:33.431Z,95692.78
2023-07-11T08:27:01.188Z,95682.03
2023-07-11T08:29:30.813Z,95672.59
2023-07-11T08:31:59.452Z,95667.94
2023-07-11T08:34:27.352Z,95669.06
2023-07-11T08:36:55.184Z,95671.72
2023-07-11T08:39:22.980Z,95662.38
2023-07-11T08:41:52.740Z,95657.69
2023-07-11T08:44:28.575Z,95659.22
2023-07-11T08:47:05.350Z,95650.00
2023-07-11T08:49:39.638Z,95656.13
2023-07-11T08:52:11.568Z,95650.03
2023-07-11T08:54:47.138Z,95652.25
2023-07-11T08:57:18.315Z,95649.50
2023-07-11T08:59:56.218Z,95641.25
2023-07-11T09:02:34.977Z,95643.28
2023-07-11T09:05:05.423Z,95631.28
2023-07-11T09:07:38.622Z,95635.31
2023-07-11T09:10:42.854Z,95636.91
2023-07-11T09:13:44.922Z,95629.34
2023-07-11T09:16:36.369Z,95631.88
2023-07-11T09:19:16.738Z,95627.97
2023-07-11T09:21:54.389Z,95620.91
2023-07-11T09:24:33.251Z,95622.34
2023-07-11T09:27:05.411Z,95619.75
2023-07-11T09:29:34.488Z,95611.44
2023-07-11T09:32:06.196Z,95612.81
2023-07-11T09:34:37.887Z,95616.47
2023-07-11T09:37:14.797Z,95611.09
2023-07-11T09:39:49.917Z,95604.66
2023-07-11T09:42:39.473Z,95601.38
2023-07-11T09:45:12.487Z,95604.13
2023-07-11T09:47:42.329Z,95598.84
2023-07-11T09:50:39.289Z,95600.56
2023-07-11T09:53:14.439Z,95594.28
2023-07-11T09:55:42.756Z,95596.63
2023-07-11T09:58:16.310Z,95589.34
2023-07-11T10:00:46.757Z,95587.81
2023-07-11T10:03:17.195Z,95579.63
2023-07-11T10:05:49.209Z,95584.94
2023-07-11T10:08:20.412Z,95584.72
2023-07-11T10:10:49.826Z,95575.72
2023-07-11T10:13:25.613Z,95582.69
2023-07-11T10:16:01.514Z,95570.53
2023-07-11T10:18:31.591Z,95585.19
2023-07-11T10:21:08.467Z,95582.19
2023-07-11T10:23:37.471Z,95569.06
2023-07-11T10:26:09.432Z,95561.00
2023-07-11T10:28:40.457Z,95559.81
2023-07-11T10:31:13.112Z,95550.69
2023-07-11T10:33:55.045Z,95562.03
2023-07-11T10:36:31.804Z,95553.75
2023-07-11T10:39:02.598Z,95541.81
2023-07-11T10:41:34.359Z,95545.44
2023-07-11T10:44:04.668Z,95539.75
2023-07-11T10:46:38.153Z,95536.56
2023-07-11T10:49:11.045Z,95537.56
2023-07-11T10:51:47.835Z,95524.69
2023-07-11T10:54:23.434Z,95535.19
2023-07-11T10:56:57.692Z,95524.59
2023-07-11T10:59:29.400Z,95522.81
2023-07-11T11:02:05.688Z,95521.81
2023-07-11T11:05:01.186Z,95519.38
2023-07-11T11:07:35.855Z,95519.06
2023-07-11T11:10:13.166Z,95506.50
2023-07-11T11:12:45.069Z,95492.13
2023-07-11T11:15:30.170Z,95494.34
2023-07-11T11:18:10.635Z,95492.28
2023-07-11T11:23:32.972Z,95484.41
2023-07-11T11:26:16.163Z,95478.38
2023-07-11T11:28:57.174Z,95477.31
2023-07-11T11:31:26.824Z,95483.69
2023-07-11T11:34:09.622Z,95476.13
2023-07-11T11:37:00.134Z,95475.78
2023-07-11T11:39:44.602Z,95479.88
2023-07-11T11:42:21.875Z,95480.91
2023-07-11T11:52:44.648Z,95463.34
2023-07-11T11:55:34.541Z,95455.31
2023-07-11T11:58:02.857Z,95453.25
2023-07-11T12:00:42.099Z,95450.41
2023-07-11T12:03:22.441Z,95459.66
2023-07-11T12:05:53.530Z,95452.97
2023-07-11T12:08:39.638Z,95450.31
2023-07-11T12:11:30.124Z,95442.72
2023-07-11T12:14:22.163Z,95434.53
2023-07-11T12:16:51.706Z,95424.03
2023-07-11T12:19:31.370Z,95432.66
2023-07-11T12:22:02.821Z,95430.88
2023-07-11T12:25:00.464Z,95426.47
2023-07-11T12:27:58.750Z,95414.47
2023-07-11T12:30:43.866Z,95418.44
2023-07-11T12:33:37.354Z,95396.38
2023-07-11T12:36:38.757Z,95410.88
2023-07-11T12:39:18.404Z,95392.25
2023-07-11T12:41:55.828Z,95384.25
2023-07-11T12:44:23.752Z,95377.19
2023-07-11T12:46:53.974Z,95380.84
2023-07-11T12:49:26.736Z,95378.56
2023-07-11T12:52:05.298Z,95382.41
2023-07-11T12:54:33.059Z,95374.47
2023-07-11T12:57:00.851Z,95384.09
2023-07-11T12:59:30.822Z,95378.31
2023-07-11T13:02:02.633Z,95367.59
2023-07-11T13:04:36.212Z,95368.16
2023-07-11T13:07:06.518Z,95379.56
2023-07-11T13:09:46.144Z,95370.91
2023-07-11T13:12:18.796Z,95360.47
2023-07-11T13:14:48.534Z,95353.84
2023-07-11T13:17:20.288Z,95352.22
2023-07-11T13:19:49.689Z,95361.50
2023-07-11T13:22:19.947Z,95356.16
2023-07-11T13:24:48.892Z,95360.16
2023-07-11T13:27:19.275Z,95355.91
2023-07-11T13:29:46.950Z,95360.00
2023-07-11T13:32:20.189Z,95362.81
2023-07-11T13:34:52.534Z,95350.53
2023-07-11T13:37:25.929Z,95352.25
2023-07-11T13:39:53.945Z,95331.22
2023-07-11T13:42:25.303Z,95341.88
2023-07-11T13:44:54.893Z,95330.59
2023-07-11T13:47:26.295Z,95326.56
2023-07-11T13:50:16.810Z,95332.69
2023-07-11T13:52:50.496Z,95325.94
2023-07-11T13:55:23.190Z,95325.50
2023-07-11T13:57:51.922Z,95319.28
2023-07-11T14:00:23.618Z,95321.22
2023-07-11T14:02:54.612Z,95317.88
2023-07-11T14:05:24.424Z,95311.13
2023-07-11T14:07:54.198Z,95321.59
2023-07-11T14:10:24.466Z,95314.50
2023-07-11T14:12:52.658Z,95311.66
2023-07-11T14:15:22.943Z,95311.50
2023-07-11T14:17:52.279Z,95295.91
2023-07-11T14:20:26.304Z,95303.19
2023-07-11T14:22:54.507Z,95306.03
2023-07-11T14:25:24.320Z,95297.34
2023-07-11T14:27:52.856Z,95293.88
2023-07-11T14:30:21.225Z,95289.38
2023-07-11T14:32:49.775Z,95282.09
2023-07-11T14:35:19.398Z,95276.31
2023-07-11T14:37:49.418Z,95271.25
2023-07-11T14:40:18.322Z,95271.28
2023-07-11T14:42:46.652Z,95277.03
2023-07-11T14:45:18.018Z,95272.31
2023-07-11T14:47:47.352Z,95267.72
2023-07-11T14:50:17.085Z,95260.53
2023-07-11T14:52:45.652Z,95263.41
2023-07-11T15:00:22.918Z,95255.69
2023-07-11T15:02:51.757Z,95249.06
2023-07-11T15:10:26.299Z,95248.56
2023-07-11T15:15:28.085Z,95242.72
2023-07-11T15:17:55.882Z,95249.38
2023-07-11T15:20:24.899Z,95245.19
2023-07-11T15:22:54.505Z,95240.72
2023-07-11T15:25:29.987Z,95237.94
2023-07-11T15:27:58.432Z,95241.06
2023-07-11T15:30:26.750Z,95240.88
2023-07-11T15:32:54.672Z,95227.69
2023-07-11T15:35:24.171Z,95242.97
2023-07-11T15:37:53.683Z,95234.47
2023-07-11T15:40:23.916Z,95228.72
2023-07-11T15:42:54.459Z,95243.91
2023-07-11T15:45:24.696Z,95224.38
2023-07-11T15:47:53.262Z,95225.16
2023-07-11T15:50:23.526Z,95212.53
2023-07-11T15:52:51.862Z,95216.81
2023-07-11T15:55:21.981Z,95220.47
2023-07-11T15:57:51.301Z,95213.41
2023-07-11T16:00:22.244Z,95218.81
2023-07-11T16:02:50.635Z,95211.47
2023-07-11T16:05:19.072Z,95214.22
2023-07-11T16:07:47.864Z,95202.38
2023-07-11T16:10:18.619Z,95200.88
2023-07-11T16:12:46.880Z,95192.81
2023-07-11T16:15:14.980Z,95207.78
2023-07-11T16:17:47.783Z,95193.41
2023-07-11T16:20:21.850Z,95207.31
2023-07-11T16:22:49.945Z,95202.47
2023-07-11T16:25:21.537Z,95196.00
2023-07-11T16:27:54.637Z,95173.81
2023-07-11T16:30:24.204Z,95183.69
2023-07-11T16:32:54.535Z,95182.16
2023-07-11T16:35:27.786Z,95164.94
2023-07-11T16:38:02.734Z,95181.63
2023-07-11T16:40:31.855Z,95176.81
2023-07-11T16:42:59.660Z,95174.19
2023-07-11T16:45:32.482Z,95174.75
2023-07-11T16:48:01.567Z,95173.41
2023-07-11T16:50:30.289Z,95170.09
2023-07-11T16:53:00.804Z,95165.53
2023-07-11T16:55:29.417Z,95162.25
2023-07-11T16:57:57.135Z,95164.34
2023-07-11T17:00:27.143Z,95170.56
2023-07-11T17:02:55.351Z,95174.81
2023-07-11T17:05:27.818Z,95174.41
2023-07-11T17:07:56.294Z,95173.94
2023-07-11T17:10:24.233Z,95178.72
2023-07-11T17:12:51.878Z,95171.44
2023-07-11T17:15:20.592Z,95170.84
2023-07-11T17:17:48.334Z,95164.56
2023-07-11T17:20:18.962Z,95169.00
2023-07-11T17:22:47.932Z,95159.63
2023-07-11T17:25:18.986Z,95156.72
2023-07-11T17:27:48.784Z,95159.91
2023-07-11T17:30:18.679Z,95141.84
2023-07-11T17:32:47.581Z,95148.25
2023-07-11T17:35:16.713Z,95148.88
2023-07-11T17:37:47.969Z,95138.41
2023-07-11T17:40:22.364Z,95140.31
2023-07-11T17:42:50.596Z,95131.63
2023-07-11T17:45:39.873Z,95118.56
2023-07-11T17:48:17.264Z,95121.97
2023-07-11T17:50:46.650Z,95113.75
2023-07-11T17:53:14.592Z,95095.16
2023-07-11T17:55:45.268Z,95100.06
2023-07-11T17:58:22.520Z,95098.13
2023-07-11T18:00:51.202Z,95090.59
2023-07-11T18:03:19.278Z,95081.22
2023-07-11T18:05:48.230Z,95075.75
2023-07-11T18:08:17.294Z,95074.16
2023-07-11T18:10:47.760Z,95056.13
2023-07-11T18:13:15.926Z,95041.91
2023-07-11T18:15:46.020Z,95044.97
2023-07-11T18:18:23.138Z,95036.44
2023-07-11T18:20:51.400Z,95031.75
2023-07-11T18:23:19.088Z,95023.44
2023-07-11T18:25:49.234Z,95010.28
2023-07-11T18:28:18.910Z,95008.41
2023-07-11T18:30:46.933Z,95011.78
2023-07-11T18:33:14.950Z,95009.97
2023-07-11T18:35:43.826Z,95014.78
2023-07-11T18:38:17.068Z,95020.69
2023-07-11T18:40:46.167Z,95012.13
2023-07-11T18:43:15.342Z,95016.06
2023-07-11T18:45:46.752Z,95020.31
2023-07-11T18:48:15.088Z,95038.19
2023-07-11T18:50:44.141Z,95029.69
2023-07-11T18:53:12.163Z,95020.47
2023-07-11T18:55:44.529Z,95019.63
2023-07-11T18:58:12.607Z,95010.56
2023-07-11T19:00:45.288Z,95004.56
2023-07-11T19:03:14.356Z,95002.53
2023-07-11T19:05:42.239Z,95007.56
2023-07-11T19:08:18.842Z,95000.88
2023-07-11T19:10:46.979Z,94991.03
2023-07-11T19:13:15.291Z,94976.47
2023-07-11T19:15:46.588Z,94966.72
2023-07-11T19:18:18.268Z,94955.63
2023-07-11T19:20:46.256Z,94959.63
2023-07-11T19:23:17.246Z,94959.19
2023-07-11T19:25:47.776Z,94975.38
2023-07-11T19:28:17.216Z,94975.56
2023-07-11T19:30:48.275Z,94967.44
2023-07-11T19:33:17.050Z,94958.47
2023-07-11T19:35:50.516Z,94956.19
2023-07-11T19:38:20.348Z,94966.78
2023-07-11T19:40:48.375Z,94967.25
2023-07-11T19:43:16.490Z,94962.75
2023-07-11T19:45:48.193Z,94968.81
2023-07-11T19:48:18.129Z,94963.69
2023-07-11T19:50:48.117Z,94965.22
2023-07-11T19:53:18.511Z,94969.69
2023-07-11T19:55:47.602Z,94977.84
2023-07-11T19:58:18.600Z,94981.84
2023-07-11T20:00:49.557Z,94995.16
2023-07-11T20:03:17.554Z,95004.56
2023-07-11T20:05:47.962Z,95005.63
2023-07-11T20:08:19.171Z,95001.78
2023-07-11T20:10:49.272Z,94999.34
2023-07-11T20:13:19.208Z,95000.13
2023-07-11T20:15:50.378Z,94996.44
2023-07-11T20:18:21.691Z,94991.75
2023-07-11T20:20:51.789Z,94990.19
2023-07-11T20:23:20.082Z,94989.47
2023-07-11T20:25:53.233Z,94983.34
2023-07-11T20:28:22.689Z,94981.00
2023-07-11T20:30:54.028Z,94988.25
2023-07-11T20:33:22.251Z,94989.47
2023-07-11T20:35:52.546Z,94994.50
2023-07-11T20:38:22.408Z,94995.59
2023-07-11T20:40:51.413Z,94989.22
2023-07-11T20:43:20.092Z,94987.13
2023-07-11T20:45:49.633Z,94982.31
2023-07-11T20:48:20.832Z,94977.50
2023-07-11T20:50:49.387Z,94985.16
2023-07-11T20:53:17.415Z,94980.31
2023-07-11T20:55:48.419Z,94977.59
2023-07-11T20:58:17.501Z,94975.69
2023-07-11T21:00:46.525Z,94984.63
2023-07-11T21:03:16.025Z,95006.44
2023-07-11T21:05:47.145Z,95062.63
2023-07-11T21:08:25.718Z,95122.34
2023-07-11T21:10:54.293Z,95192.31
2023-07-11T21:13:22.397Z,95322.69
2023-07-11T21:15:50.638Z,95518.94
2023-07-11T21:18:20.303Z,95469.59
2023-07-11T21:20:50.913Z,95549.31
2023-07-11T21:23:18.693Z,95517.28
2023-07-11T21:25:46.971Z,95587.59
2023-07-11T21:28:26.747Z,95618.50
2023-07-11T21:30:55.644Z,95628.63
2023-07-11T21:33:24.124Z,95654.66
2023-07-11T21:35:53.814Z,95633.25
2023-07-11T21:38:24.260Z,95617.47
2023-07-11T21:40:52.989Z,95643.25
2023-07-11T21:43:20.684Z,95626.28
2023-07-11T21:45:48.426Z,95655.03
2023-07-11T21:48:21.582Z,95641.31
2023-07-11T21:50:54.400Z,95645.72
2023-07-11T21:53:24.129Z,95642.28
2023-07-11T21:55:55.833Z,95643.78
2023-07-11T21:58:25.898Z,95646.09
2023-07-11T22:00:54.754Z,95641.56
2023-07-11T22:03:23.928Z,95644.97
2023-07-11T22:05:54.969Z,95632.03
2023-07-11T22:08:25.016Z,95625.06
2023-07-11T22:10:53.050Z,95606.34
2023-07-11T22:13:22.329Z,95588.09
2023-07-11T22:15:50.671Z,95591.69
2023-07-11T22:18:21.591Z,95590.09
2023-07-11T22:20:49.778Z,95587.53
2023-07-11T22:23:19.016Z,95595.44
2023-07-11T22:25:47.372Z,95585.63
2023-07-11T22:28:17.231Z,95572.72
2023-07-11T22:30:46.337Z,95586.66
2023-07-11T22:33:15.893Z,95581.69
2023-07-11T22:35:43.699Z,95599.19
2023-07-11T22:38:14.377Z,95602.97
2023-07-11T22:40:45.496Z,95608.50
2023-07-11T22:43:15.176Z,95590.38
2023-07-11T22:45:45.663Z,95570.69
2023-07-11T22:48:16.093Z,95567.16
2023-07-11T22:50:47.058Z,95588.78
2023-07-11T22:53:16.931Z,95593.22
2023-07-11T22:55:50.580Z,95602.22
2023-07-11T22:58:23.229Z,95608.25
2023-07-11T23:00:51.286Z,95612.38
2023-07-11T23:03:19.430Z,95619.63
2023-07-11T23:05:48.373Z,95620.75
2023-07-11T23:08:17.529Z,95618.97
2023-07-11T23:10:46.785Z,95608.91
2023-07-11T23:13:14.487Z,95620.34
2023-07-11T23:15:50.599Z,95617.59
2023-07-11T23:18:20.954Z,95607.59
2023-07-11T23:20:52.837Z,95581.78
2023-07-11T23:23:21.322Z,95584.22
2023-07-11T23:25:50.471Z,95557.91
2023-07-11T23:28:24.624Z,95530.19
2023-07-11T23:30:53.395Z,95523.09
2023-07-11T23:33:21.705Z,95510.06
2023-07-11T23:35:49.645Z,95532.44
2023-07-11T23:38:17.628Z,95528.88
2023-07-11T23:40:46.589Z,95523.34
2023-07-11T23:43:19.237Z,95536.03
2023-07-11T23:45:49.206Z,95539.06
2023-07-11T23:48:20.364Z,95527.06
2023-07-11T23:50:50.199Z,95516.78
2023-07-11T23:53:20.805Z,95504.88
2023-07-11T23:55:50.158Z,95504.34
2023-07-11T23:58:23.273Z,95511.66
